Time;durP1;ratioP1;P1;durP2;ratioP2;P2;SDS_P1;SDS_P2;PMS_P1;PMS_P2;Temp;Humidity;BMP_temperature;BMP_pressure;BME280_temperature;BME280_humidity;BME280_pressure;Samples;Min_cycle;Max_cycle;Signal;HPM_P1;HPM_P2
2022/10/28 00:00:35;;;;;;;32.90;13.68;;;;;;;12.87;100.00;99840.31;5061664;28;20375;-93
2022/10/28 00:03:01;;;;;;;31.83;12.82;;;;;;;12.85;100.00;99832.34;5062959;28;20037;-93
2022/10/28 00:05:32;;;;;;;26.15;12.65;;;;;;;12.89;100.00;99841.19;5065212;28;20049;-93
2022/10/28 00:07:58;;;;;;;29.55;13.85;;;;;;;12.81;100.00;99829.75;5065952;28;20082;-93
2022/10/28 00:10:24;;;;;;;31.67;14.82;;;;;;;12.88;100.00;99842.06;5060491;28;20061;-92
2022/10/28 00:12:50;;;;;;;29.40;13.35;;;;;;;12.67;100.00;99820.22;5060724;28;20032;-93
2022/10/28 00:15:16;;;;;;;30.23;13.88;;;;;;;12.73;100.00;99837.94;5061424;28;20094;-93
2022/10/28 00:17:41;;;;;;;32.08;14.02;;;;;;;12.76;100.00;99847.66;5060975;28;20027;-94
2022/10/28 00:20:08;;;;;;;27.58;14.20;;;;;;;12.72;100.00;99844.16;5064748;28;20036;-92
2022/10/28 00:22:35;;;;;;;30.95;14.45;;;;;;;12.74;100.00;99848.56;5061779;28;20059;-91
2022/10/28 00:25:01;;;;;;;29.90;14.57;;;;;;;12.66;100.00;99842.47;5059921;28;20036;-93
2022/10/28 00:27:28;;;;;;;32.10;13.32;;;;;;;12.71;100.00;99853.09;5060466;28;20082;-93
2022/10/28 00:29:54;;;;;;;36.50;14.82;;;;;;;12.77;100.00;99844.06;5061174;28;20123;-92
2022/10/28 00:32:20;;;;;;;35.45;15.23;;;;;;;12.69;100.00;99838.88;5061012;28;20549;-94
2022/10/28 00:34:46;;;;;;;38.63;15.18;;;;;;;12.69;100.00;99847.78;5061036;28;20045;-93
2022/10/28 00:37:12;;;;;;;39.90;15.13;;;;;;;12.68;100.00;99842.44;5065750;28;20424;-91
2022/10/28 00:39:39;;;;;;;38.90;16.02;;;;;;;12.71;100.00;99856.63;5062637;28;20047;-92
2022/10/28 00:42:06;;;;;;;34.70;15.20;;;;;;;12.63;100.00;99836.34;5060662;28;20513;-92
2022/10/28 00:44:57;;;;;;;34.22;15.40;;;;;;;12.70;100.00;99857.53;5060879;28;20040;-93
2022/10/28 00:47:40;;;;;;;33.92;14.68;;;;;;;12.61;100.00;99846.16;5057718;28;20406;-92
2022/10/28 00:50:15;;;;;;;32.97;14.48;;;;;;;12.64;100.00;99852.31;5058624;28;20045;-94
2022/10/28 00:52:43;;;;;;;40.25;15.40;;;;;;;12.60;100.00;99855.03;5059414;28;20104;-93
2022/10/28 00:55:14;;;;;;;37.80;15.73;;;;;;;12.58;100.00;99857.75;5060150;28;20549;-93
2022/10/28 00:57:41;;;;;;;35.92;14.10;;;;;;;12.50;100.00;99839.22;5061132;28;20049;-94
2022/10/28 01:00:08;;;;;;;33.65;14.32;;;;;;;12.57;100.00;99839.97;5062965;28;20206;-91
2022/10/28 01:02:42;;;;;;;33.67;15.45;;;;;;;12.47;100.00;99812.59;5060166;28;20061;-93
2022/10/28 01:05:09;;;;;;;36.55;15.05;;;;;;;12.57;100.00;99841.78;5059466;28;20028;-92
2022/10/28 01:07:35;;;;;;;32.20;14.80;;;;;;;12.54;100.00;99832.03;5060408;28;20053;-92
2022/10/28 01:10:01;;;;;;;38.22;16.27;;;;;;;12.56;100.00;99840.91;5061729;28;21406;-95
2022/10/28 01:12:39;;;;;;;36.53;14.60;;;;;;;12.57;100.00;99829.31;5054998;28;20384;-93
2022/10/28 01:15:15;;;;;;;36.95;15.73;;;;;;;12.58;100.00;99830.19;5057970;28;20338;-93
2022/10/28 01:17:53;;;;;;;41.28;15.82;;;;;;;12.70;100.00;99828.16;5059184;28;20047;-95
2022/10/28 01:20:49;;;;;;;37.53;16.40;;;;;;;12.80;100.00;99836.91;5059638;28;20037;-93
2022/10/28 01:23:24;;;;;;;36.70;15.93;;;;;;;12.89;100.00;99825.16;5058417;28;20043;-91
2022/10/28 01:26:25;;;;;;;40.00;15.85;;;;;;;12.85;100.00;99829.66;5059602;28;20371;-92
2022/10/28 01:29:14;;;;;;;33.28;15.05;;;;;;;12.72;100.00;99829.00;5051080;28;20028;-93
2022/10/28 01:31:45;;;;;;;33.08;14.60;;;;;;;12.72;100.00;99841.50;5058290;28;20029;-92
2022/10/28 01:34:18;;;;;;;34.90;14.90;;;;;;;12.61;100.00;99824.81;5060763;28;20032;-92
2022/10/28 01:36:54;;;;;;;34.58;14.27;;;;;;;12.54;100.00;99824.91;5060125;28;20056;-92
2022/10/28 01:39:29;;;;;;;31.15;14.68;;;;;;;12.54;100.00;99821.38;5065902;28;20052;-94
2022/10/28 01:42:01;;;;;;;34.90;15.90;;;;;;;12.45;100.00;99809.06;5060498;28;20020;-95
2022/10/28 01:44:33;;;;;;;34.42;15.20;;;;;;;12.43;100.00;99808.22;5062032;28;20044;-93
2022/10/28 01:47:07;;;;;;;37.10;14.57;;;;;;;12.46;100.00;99812.63;5057666;28;20180;-90
2022/10/28 01:49:41;;;;;;;36.90;15.88;;;;;;;12.36;100.00;99797.69;5060720;28;20123;-91
2022/10/28 01:52:11;;;;;;;39.63;15.95;;;;;;;12.44;100.00;99812.63;5059166;28;20115;-93
2022/10/28 01:54:41;;;;;;;31.13;14.90;;;;;;;12.39;100.00;99803.84;5059458;28;20045;-93
2022/10/28 01:57:11;;;;;;;28.85;14.98;;;;;;;12.29;100.00;99791.56;5057496;28;20052;-94
2022/10/28 01:59:38;;;;;;;34.95;15.38;;;;;;;12.22;100.00;99781.94;5059270;28;20044;-93
2022/10/28 02:02:05;;;;;;;33.30;13.52;;;;;;;12.24;100.00;99793.44;5058593;28;20443;-94
2022/10/28 02:04:31;;;;;;;32.13;15.35;;;;;;;12.23;100.00;99807.69;5063526;28;20049;-92
2022/10/28 02:06:59;;;;;;;34.30;15.00;;;;;;;12.13;100.00;99796.31;5060331;28;20065;-93
2022/10/28 02:09:38;;;;;;;35.30;14.90;;;;;;;12.24;100.00;99813.00;5059677;28;20045;-93
2022/10/28 02:12:22;;;;;;;31.77;15.05;;;;;;;12.22;100.00;99809.47;5058293;28;20041;-94
2022/10/28 02:15:23;;;;;;;35.20;15.38;;;;;;;12.25;100.00;99806.75;5057797;28;20090;-93
2022/10/28 02:18:08;;;;;;;32.53;15.40;;;;;;;12.19;100.00;99808.63;5052461;28;20053;-93
2022/10/28 02:20:40;;;;;;;36.90;15.43;;;;;;;12.11;100.00;99808.78;5056689;28;20108;-93
2022/10/28 02:23:19;;;;;;;29.65;14.65;;;;;;;11.98;100.00;99781.44;5060051;28;20043;-93
2022/10/28 02:25:53;;;;;;;38.63;15.60;;;;;;;12.08;100.00;99812.38;5056882;28;20048;-93
2022/10/28 02:28:26;;;;;;;30.15;14.48;;;;;;;12.04;100.00;99802.66;5059926;28;20033;-93
2022/10/28 02:30:59;;;;;;;34.72;14.15;;;;;;;12.09;100.00;99802.59;5059552;28;20040;-92
2022/10/28 02:33:31;;;;;;;35.70;15.55;;;;;;;11.98;100.00;99792.09;5062402;28;20059;-92
2022/10/28 02:36:03;;;;;;;33.67;15.95;;;;;;;12.01;100.00;99800.03;5065097;28;20397;-93
2022/10/28 02:38:32;;;;;;;36.60;15.63;;;;;;;11.99;100.00;99798.31;5062702;28;20036;-95
2022/10/28 02:41:02;;;;;;;26.75;14.07;;;;;;;11.95;100.00;99783.25;5064311;28;20044;-94
2022/10/28 02:43:32;;;;;;;34.13;15.60;;;;;;;12.09;100.00;99797.25;5064395;28;20045;-94
2022/10/28 02:46:00;;;;;;;33.08;15.90;;;;;;;11.97;100.00;99765.47;5059274;28;20401;-93
2022/10/28 02:48:32;;;;;;;37.80;16.50;;;;;;;12.13;100.00;99794.50;5063969;28;20049;-93
2022/10/28 02:51:04;;;;;;;40.17;17.38;;;;;;;12.09;100.00;99786.59;5060355;28;20051;-94
2022/10/28 02:53:39;;;;;;;33.80;17.30;;;;;;;12.06;100.00;99786.66;5062488;28;20045;-94
2022/10/28 02:56:07;;;;;;;35.85;16.00;;;;;;;12.01;100.00;99777.84;5063045;28;20091;-93
2022/10/28 02:58:39;;;;;;;36.73;16.50;;;;;;;11.98;100.00;99773.44;5062583;28;20478;-92
2022/10/28 03:01:05;;;;;;;37.30;16.80;;;;;;;12.06;100.00;99797.31;5060522;28;20024;-94
2022/10/28 03:03:32;;;;;;;39.83;15.98;;;;;;;11.98;100.00;99788.56;5061391;28;20071;-90
2022/10/28 03:05:58;;;;;;;32.20;15.95;;;;;;;11.88;100.00;99779.81;5061327;28;20048;-92
2022/10/28 03:08:24;;;;;;;41.25;17.52;;;;;;;11.92;100.00;99778.88;5057681;28;20044;-93
2022/10/28 03:10:50;;;;;;;35.58;14.82;;;;;;;11.82;100.00;99771.88;5058852;28;20086;-94
2022/10/28 03:13:16;;;;;;;34.42;16.08;;;;;;;11.95;100.00;99802.81;5063341;28;20390;-93
2022/10/28 03:15:42;;;;;;;44.15;16.95;;;;;;;11.77;100.00;99771.97;5056952;28;20041;-93
2022/10/28 03:18:08;;;;;;;40.70;16.90;;;;;;;11.74;100.00;99782.69;5061175;28;20044;-94
2022/10/28 03:20:35;;;;;;;43.45;16.05;;;;;;;11.79;100.00;99790.59;5061129;28;20056;-92
2022/10/28 03:23:01;;;;;;;35.63;16.55;;;;;;;11.75;100.00;99794.22;5056582;28;20053;-93
2022/10/28 03:25:27;;;;;;;35.38;15.57;;;;;;;11.66;100.00;99785.44;5062634;28;20048;-93
2022/10/28 03:27:52;;;;;;;34.38;16.23;;;;;;;11.77;100.00;99795.06;5057438;28;20049;-93
2022/10/28 03:30:18;;;;;;;29.23;15.30;;;;;;;11.72;100.00;99790.69;5052329;28;20099;-91
2022/10/28 03:32:44;;;;;;;46.80;15.77;;;;;;;11.83;100.00;99805.63;5055602;28;20069;-92
2022/10/28 03:35:10;;;;;;;37.60;16.42;;;;;;;11.88;100.00;99803.81;5061092;28;20125;-93
2022/10/28 03:37:40;;;;;;;40.78;17.80;;;;;;;11.92;100.00;99800.19;5057532;28;20036;-93
2022/10/28 03:40:06;;;;;;;42.55;17.15;;;;;;;11.92;100.00;99808.19;5062829;28;20601;-93
2022/10/28 03:42:33;;;;;;;44.45;17.52;;;;;;;11.87;100.00;99784.25;5064657;28;20028;-92
2022/10/28 03:44:58;;;;;;;41.30;16.67;;;;;;;11.86;100.00;99801.16;5061445;28;20127;-93
2022/10/28 03:47:24;;;;;;;47.40;18.73;;;;;;;11.79;100.00;99791.47;5055404;28;20573;-93
2022/10/28 03:49:50;;;;;;;40.17;17.63;;;;;;;11.78;100.00;99795.06;5061120;28;20068;-90
2022/10/28 03:52:16;;;;;;;34.80;17.75;;;;;;;11.75;100.00;99807.53;5061714;28;20037;-94
2022/10/28 03:54:43;;;;;;;36.63;17.02;;;;;;;11.67;100.00;99800.56;5059473;28;20072;-92
2022/10/28 03:57:09;;;;;;;36.10;15.98;;;;;;;11.64;100.00;99795.25;5050612;28;20151;-92
2022/10/28 03:59:35;;;;;;;39.40;16.60;;;;;;;11.54;100.00;99788.31;5059050;28;20552;-92
2022/10/28 04:02:00;;;;;;;37.80;16.15;;;;;;;11.47;100.00;99786.63;5057406;28;20033;-92
2022/10/28 04:04:26;;;;;;;32.80;14.45;;;;;;;11.50;100.00;99797.25;5057174;28;20072;-93
2022/10/28 04:06:52;;;;;;;35.33;15.93;;;;;;;11.41;100.00;99792.94;5055584;28;20041;-92
2022/10/28 04:09:18;;;;;;;33.53;15.55;;;;;;;11.41;100.00;99797.41;5058023;28;20048;-93
2022/10/28 04:11:48;;;;;;;33.42;14.57;;;;;;;11.47;100.00;99813.25;5057958;28;20562;-94
2022/10/28 04:14:14;;;;;;;33.72;15.35;;;;;;;11.38;100.00;99792.97;5062210;28;20056;-94
2022/10/28 04:16:39;;;;;;;32.30;14.88;;;;;;;11.40;100.00;99791.16;5056267;28;20041;-94
2022/10/28 04:19:05;;;;;;;36.22;14.55;;;;;;;11.27;100.00;99782.47;5057440;28;20029;-91
2022/10/28 04:21:31;;;;;;;38.17;15.55;;;;;;;11.36;100.00;99801.88;5055672;28;20127;-92
2022/10/28 04:23:57;;;;;;;33.75;15.02;;;;;;;11.28;100.00;99802.00;5062137;28;20065;-92
2022/10/28 04:26:23;;;;;;;34.17;15.32;;;;;;;11.22;100.00;99797.63;5064889;28;20060;-92
2022/10/28 04:28:50;;;;;;;35.35;15.20;;;;;;;11.12;100.00;99779.13;5064554;28;20044;-94
2022/10/28 04:31:16;;;;;;;31.38;14.90;;;;;;;11.16;100.00;99788.84;5061064;28;20041;-92
2022/10/28 04:33:42;;;;;;;29.88;14.35;;;;;;;11.22;100.00;99804.75;5063306;28;20055;-92
2022/10/28 04:36:08;;;;;;;34.28;14.43;;;;;;;11.15;100.00;99800.41;5060044;28;20037;-91
2022/10/28 04:38:34;;;;;;;33.88;15.07;;;;;;;11.18;100.00;99805.69;5058884;28;20070;-93
2022/10/28 04:41:00;;;;;;;34.92;15.52;;;;;;;11.15;100.00;99790.63;5065868;28;20048;-93
2022/10/28 04:43:26;;;;;;;40.08;16.38;;;;;;;11.16;100.00;99779.06;5061796;28;20036;-92
2022/10/28 04:45:53;;;;;;;84.07;18.90;;;;;;;11.20;100.00;99778.13;5063180;28;20072;-94
2022/10/28 04:48:19;;;;;;;45.95;16.23;;;;;;;11.36;100.00;99793.88;5057013;28;20037;-93
2022/10/28 04:50:45;;;;;;;82.00;18.25;;;;;;;11.48;100.00;99810.59;5059795;28;20051;-93
2022/10/28 04:53:11;;;;;;;84.10;18.08;;;;;;;11.42;100.00;99805.34;5063279;28;21317;-93
2022/10/28 04:55:37;;;;;;;120.03;18.38;;;;;;;11.40;100.00;99801.81;5059879;28;20052;-93
2022/10/28 04:58:04;;;;;;;78.55;17.48;;;;;;;11.28;100.00;99784.22;5065473;28;20398;-93
2022/10/28 05:00:31;;;;;;;91.25;17.10;;;;;;;11.38;100.00;99800.94;5059730;28;20028;-92
2022/10/28 05:03:00;;;;;;;67.75;16.67;;;;;;;11.38;100.00;99800.94;5057764;28;20078;-92
2022/10/28 05:05:26;;;;;;;90.57;17.70;;;;;;;11.30;100.00;99785.09;5062327;28;20045;-93
2022/10/28 05:07:52;;;;;;;51.58;15.32;;;;;;;11.38;100.00;99792.09;5058182;28;20037;-93
2022/10/28 05:10:18;;;;;;;98.95;17.17;;;;;;;11.43;100.00;99814.22;5058652;28;20051;-92
2022/10/28 05:12:44;;;;;;;74.63;16.15;;;;;;;11.43;100.00;99801.78;5060075;28;20033;-90
2022/10/28 05:15:11;;;;;;;110.40;18.02;;;;;;;11.41;100.00;99794.72;5057516;28;20139;-89
2022/10/28 05:17:38;;;;;;;85.05;16.42;;;;;;;11.43;100.00;99799.13;5057261;28;20299;-92
2022/10/28 05:20:07;;;;;;;86.07;16.88;;;;;;;11.52;100.00;99806.97;5059302;28;20048;-93
2022/10/28 05:22:33;;;;;;;50.65;15.18;;;;;;;11.48;100.00;99809.72;5060659;28;20056;-91
2022/10/28 05:24:58;;;;;;;100.18;17.65;;;;;;;11.39;100.00;99802.72;5063272;28;20036;-91
2022/10/28 05:27:24;;;;;;;58.40;15.85;;;;;;;11.35;100.00;99798.34;5062739;28;20048;-92
2022/10/28 05:29:50;;;;;;;88.68;15.30;;;;;;;11.33;100.00;99799.28;5061644;28;20048;-93
2022/10/28 05:32:16;;;;;;;162.35;19.55;;;;;;;11.28;100.00;99799.34;5061961;28;20033;-92
2022/10/28 05:34:42;;;;;;;177.65;19.33;;;;;;;11.32;100.00;99811.72;5061328;28;20048;-92
2022/10/28 05:37:10;;;;;;;266.50;23.67;;;;;;;11.26;100.00;99793.16;5068964;28;20151;-93
2022/10/28 05:39:36;;;;;;;294.98;24.45;;;;;;;11.17;100.00;99782.59;5060544;28;20099;-95
2022/10/28 05:42:02;;;;;;;356.75;26.25;;;;;;;11.21;100.00;99785.22;5068506;28;20056;-94
2022/10/28 05:44:27;;;;;;;320.38;27.08;;;;;;;11.30;100.00;99795.75;5067907;28;20059;-95
2022/10/28 05:46:54;;;;;;;340.05;27.33;;;;;;;11.42;100.00;99799.13;5066306;28;20041;-95
2022/10/28 05:49:19;;;;;;;360.15;26.45;;;;;;;11.37;100.00;99801.88;5065726;28;20048;-93
2022/10/28 05:51:45;;;;;;;302.45;30.38;;;;;;;11.28;100.00;99794.00;5066630;28;20373;-94
2022/10/28 05:54:13;;;;;;;356.17;28.75;;;;;;;11.42;100.00;99796.47;5063010;28;20049;-93
2022/10/28 05:56:39;;;;;;;363.00;28.85;;;;;;;11.43;100.00;99800.91;5067017;28;20052;-93
2022/10/28 05:59:05;;;;;;;366.35;28.50;;;;;;;11.55;100.00;99811.38;5065328;28;20048;-94
2022/10/28 06:01:31;;;;;;;282.02;25.48;;;;;;;11.48;100.00;99801.72;5063740;28;20096;-95
2022/10/28 06:03:56;;;;;;;237.07;22.40;;;;;;;11.52;100.00;99803.44;5068143;28;20067;-92
2022/10/28 06:06:22;;;;;;;248.05;26.05;;;;;;;11.62;100.00;99806.84;5068478;28;20041;-94
2022/10/28 06:08:48;;;;;;;303.08;26.20;;;;;;;11.46;100.00;99798.19;5074220;28;20110;-93
2022/10/28 06:11:15;;;;;;;322.77;26.48;;;;;;;11.57;100.00;99832.66;5070440;28;20037;-94
2022/10/28 06:13:41;;;;;;;349.33;27.73;;;;;;;11.50;100.00;99807.91;5064891;28;20555;-93
2022/10/28 06:16:07;;;;;;;230.75;24.77;;;;;;;11.57;100.00;99811.38;5069463;28;20048;-93
2022/10/28 06:18:33;;;;;;;213.27;22.77;;;;;;;11.75;100.00;99834.19;5069698;28;20040;-93
2022/10/28 06:20:59;;;;;;;243.88;23.63;;;;;;;11.69;100.00;99829.84;5070229;28;20067;-93
2022/10/28 06:23:27;;;;;;;207.57;23.10;;;;;;;11.78;100.00;99837.69;5066594;28;20047;-95
2022/10/28 06:25:56;;;;;;;258.85;25.10;;;;;;;11.78;100.00;99826.16;5069577;28;20051;-94
2022/10/28 06:28:23;;;;;;;392.08;33.25;;;;;;;11.71;100.00;99823.59;5066986;28;20037;-93
2022/10/28 06:30:49;;;;;;;117.57;19.77;;;;;;;11.87;100.00;99834.00;5074753;28;20401;-95
2022/10/28 06:33:15;;;;;;;355.63;31.02;;;;;;;11.76;100.00;99812.84;5070665;28;20055;-94
2022/10/28 06:35:41;;;;;;;310.13;27.88;;;;;;;11.83;100.00;99816.31;5065881;28;20065;-94
2022/10/28 06:38:07;;;;;;;365.17;35.10;;;;;;;11.97;100.00;99850.75;5067927;28;20106;-96
2022/10/28 06:40:33;;;;;;;206.88;26.02;;;;;;;11.82;100.00;99833.19;5070956;28;20476;-92
2022/10/28 06:43:00;;;;;;;55.08;18.73;;;;;;;11.85;100.00;99823.38;5074873;28;20049;-92
2022/10/28 06:45:28;;;;;;;111.38;20.90;;;;;;;12.03;100.00;99830.22;5075438;28;20033;-93
2022/10/28 06:47:55;;;;;;;81.90;19.48;;;;;;;12.21;100.00;99849.47;5071567;28;20044;-94
2022/10/28 06:50:21;;;;;;;68.50;18.35;;;;;;;12.19;100.00;99835.28;5075587;28;20025;-93
2022/10/28 06:52:47;;;;;;;36.58;16.95;;;;;;;12.35;100.00;99844.81;5076107;28;20097;-92
2022/10/28 06:55:13;;;;;;;34.55;16.92;;;;;;;12.46;100.00;99839.28;5070661;28;20067;-93
2022/10/28 06:57:39;;;;;;;50.17;17.33;;;;;;;12.43;100.00;99829.56;5074330;28;20048;-92
2022/10/28 07:00:06;;;;;;;63.35;18.73;;;;;;;12.50;100.00;99841.88;5074827;28;20037;-94
2022/10/28 07:02:33;;;;;;;37.17;16.05;;;;;;;12.59;100.00;99850.63;5075113;28;20127;-93
2022/10/28 07:04:59;;;;;;;38.13;16.38;;;;;;;12.70;100.00;99853.97;5076185;28;20040;-91
2022/10/28 07:07:25;;;;;;;37.35;16.42;;;;;;;12.83;100.00;99860.84;5074438;28;20052;-92
2022/10/28 07:09:51;;;;;;;36.63;16.80;;;;;;;12.91;100.00;99866.06;5067330;28;20041;-93
2022/10/28 07:12:17;;;;;;;39.03;16.98;;;;;;;12.84;100.00;99846.59;5071627;28;20508;-92
2022/10/28 07:14:43;;;;;;;38.72;17.25;;;;;;;13.11;100.00;99871.88;5074988;28;20044;-93
2022/10/28 07:17:09;;;;;;;38.00;16.88;;;;;;;13.03;100.00;99851.56;5069795;28;20410;-93
2022/10/28 07:19:36;;;;;;;36.70;17.02;;;;;;;13.10;100.00;99858.56;5073595;28;20044;-93
2022/10/28 07:22:02;;;;;;;35.63;16.90;;;;;;;13.14;100.00;99855.81;5070421;28;20098;-92
2022/10/28 07:24:28;;;;;;;34.65;17.08;;;;;;;13.24;100.00;99875.19;5074146;28;20494;-92
2022/10/28 07:26:54;;;;;;;39.15;17.48;;;;;;;13.23;100.00;99859.19;5070773;28;20048;-93
2022/10/28 07:29:20;;;;;;;38.03;16.83;;;;;;;13.21;100.00;99872.59;5069978;28;20048;-94
2022/10/28 07:31:46;;;;;;;37.72;16.75;;;;;;;13.10;100.00;99855.91;5072225;28;20041;-91
2022/10/28 07:34:12;;;;;;;34.30;16.73;;;;;;;13.19;100.00;99858.38;5067962;28;20050;-92
2022/10/28 07:36:39;;;;;;;44.10;17.52;;;;;;;13.35;100.00;99875.00;5071964;28;20100;-94
2022/10/28 07:39:05;;;;;;;49.42;17.98;;;;;;;13.42;100.00;99857.03;5071101;28;20041;-92
2022/10/28 07:41:31;;;;;;;47.33;17.77;;;;;;;13.30;100.00;99858.19;5068170;28;20037;-93
2022/10/28 07:43:57;;;;;;;41.45;17.80;;;;;;;13.43;100.00;99862.38;5069125;28;20033;-93
2022/10/28 07:46:23;;;;;;;52.95;20.02;;;;;;;13.65;100.00;99878.81;5069582;28;20043;-91
2022/10/28 07:48:48;;;;;;;57.58;22.88;;;;;;;13.60;100.00;99875.38;5069487;28;20044;-92
2022/10/28 07:51:15;;;;;;;35.63;18.23;;;;;;;13.71;100.00;99869.78;5067123;28;20048;-93
2022/10/28 07:53:42;;;;;;;46.78;18.45;;;;;;;13.75;100.00;99861.66;5070534;28;20168;-92
2022/10/28 07:56:12;;;;;;;50.35;18.52;;;;;;;13.92;100.00;99882.69;5073795;28;20059;-93
2022/10/28 07:58:38;;;;;;;34.30;18.05;;;;;;;13.88;100.00;99864.03;5067830;28;20041;-92
2022/10/28 08:01:07;;;;;;;36.08;17.50;;;;;;;13.83;100.00;99853.44;5072271;28;20048;-93
2022/10/28 08:03:33;;;;;;;40.33;18.92;;;;;;;13.97;100.00;99867.41;5069219;28;20119;-92
2022/10/28 08:06:00;;;;;;;42.20;18.48;;;;;;;14.11;100.00;99869.72;5069321;28;20435;-92
2022/10/28 08:08:26;;;;;;;34.22;17.98;;;;;;;14.16;100.00;99859.81;5068816;28;20090;-93
2022/10/28 08:10:53;;;;;;;39.20;18.77;;;;;;;14.26;100.00;99852.44;5076743;28;20083;-93
2022/10/28 08:13:19;;;;;;;38.78;19.40;;;;;;;14.31;100.00;99852.31;5071352;28;20040;-91
2022/10/28 08:15:51;;;;;;;37.53;18.45;;;;;;;14.35;100.00;99848.66;5072955;28;20064;-94
2022/10/28 08:18:16;;;;;;;40.97;19.38;;;;;;;14.44;100.00;99855.56;5076596;28;20511;-93
2022/10/28 08:20:42;;;;;;;42.70;19.88;;;;;;;14.45;100.00;99836.78;5073039;28;20116;-93
2022/10/28 08:23:08;;;;;;;39.63;19.67;;;;;;;14.48;100.00;99846.53;5074579;28;20052;-93
2022/10/28 08:25:34;;;;;;;38.88;19.83;;;;;;;14.53;100.00;99853.53;5068110;28;20045;-95
2022/10/28 08:28:02;;;;;;;43.70;22.10;;;;;;;14.42;100.00;99854.72;5029543;28;20050;-94
2022/10/28 08:30:28;;;;;;;38.78;20.10;;;;;;;14.46;100.00;99843.91;5036900;28;20040;-94
2022/10/28 08:32:54;;;;;;;35.67;18.70;;;;;;;14.47;100.00;99840.31;5028197;28;20116;-93
2022/10/28 08:35:20;;;;;;;42.05;20.13;;;;;;;14.60;100.00;99862.31;5029422;28;20048;-95
2022/10/28 08:37:49;;;;;;;44.65;20.77;;;;;;;14.57;100.00;99862.38;5031429;28;20053;-94
2022/10/28 08:40:16;;;;;;;43.03;21.13;;;;;;;14.57;100.00;99846.31;5039090;28;20053;-95
2022/10/28 08:42:46;;;;;;;47.35;21.92;;;;;;;14.70;100.00;99847.78;5028039;28;20041;-94
2022/10/28 08:45:22;;;;;;;41.45;20.88;;;;;;;15.01;100.00;99863.00;5024740;28;20068;-95
2022/10/28 08:48:01;;;;;;;41.33;21.05;;;;;;;14.96;100.00;99841.72;5034746;28;20100;-94
2022/10/28 08:50:30;;;;;;;44.10;20.27;;;;;;;14.98;100.00;99842.56;5034324;28;20120;-95
2022/10/28 08:53:01;;;;;;;41.47;19.50;;;;;;;15.15;100.00;99867.97;5031979;28;20092;-93
2022/10/28 08:55:32;;;;;;;42.65;22.35;;;;;;;15.23;100.00;99859.72;5031242;28;20045;-95
2022/10/28 08:58:06;;;;;;;38.42;20.67;;;;;;;15.31;100.00;99837.16;5032078;28;20041;-93
2022/10/28 09:00:35;;;;;;;38.30;19.73;;;;;;;15.55;100.00;99846.25;5041821;28;20549;-94
2022/10/28 09:03:07;;;;;;;;;;;;;;;15.71;100.00;99867.25;5040144;28;20041;-95
2022/10/28 09:05:33;;;;;;;40.67;19.67;;;;;;;15.72;100.00;99844.88;5037597;28;19921;-94
2022/10/28 09:08:01;;;;;;;37.78;18.95;;;;;;;15.91;99.90;99845.19;5027347;28;20060;-94
2022/10/28 09:10:44;;;;;;;38.87;18.80;;;;;;;16.11;98.66;99842.75;5040438;28;20037;-92
2022/10/28 09:13:18;;;;;;;37.78;19.40;;;;;;;16.13;95.93;99837.31;5016266;28;20050;-94
2022/10/28 09:15:54;;;;;;;36.80;19.00;;;;;;;16.04;97.89;99827.78;5038946;28;20052;-94
2022/10/28 09:18:41;;;;;;;37.03;18.98;;;;;;;16.25;96.93;99847.66;5038131;28;20132;-93
2022/10/28 09:21:14;;;;;;;35.67;18.08;;;;;;;16.44;96.74;99850.63;5015007;28;20073;-95
2022/10/28 09:23:48;;;;;;;37.90;19.10;;;;;;;16.59;95.75;99842.03;5020052;28;20045;-94
2022/10/28 09:26:23;;;;;;;36.63;18.08;;;;;;;16.72;95.35;99830.84;5036211;28;20072;-95
2022/10/28 09:28:59;;;;;;;35.85;18.40;;;;;;;16.88;94.48;99826.72;5083901;28;20037;-96
2022/10/28 09:31:36;;;;;;;40.58;19.95;;;;;;;17.01;93.36;99833.41;5088372;28;20044;-95
2022/10/28 09:34:13;;;;;;;34.97;19.25;;;;;;;16.91;92.13;99837.34;5082651;28;20048;-95
2022/10/28 09:36:44;;;;;;;35.83;18.20;;;;;;;16.75;94.78;99833.44;5081495;28;20041;-95
2022/10/28 09:39:17;;;;;;;36.92;18.23;;;;;;;16.92;94.95;99847.19;5084598;28;20082;-95
2022/10/28 09:41:45;;;;;;;37.03;18.73;;;;;;;17.08;93.96;99854.69;5084515;28;20071;-96
2022/10/28 09:44:17;;;;;;;38.53;17.95;;;;;;;17.26;94.05;99856.69;5087071;28;20087;-95
2022/10/28 09:46:47;;;;;;;32.90;17.40;;;;;;;17.30;92.93;99835.94;5087359;28;20056;-95
2022/10/28 09:49:19;;;;;;;34.55;17.83;;;;;;;17.48;91.75;99839.75;5081878;28;20052;-93
2022/10/28 09:51:51;;;;;;;31.27;16.95;;;;;;;17.63;91.31;99833.78;5075240;28;20044;-96
2022/10/28 09:54:31;;;;;;;36.45;17.00;;;;;;;17.82;90.53;99836.66;5065065;28;20084;-95
2022/10/28 09:56:57;;;;;;;40.42;19.52;;;;;;;17.75;89.77;99829.75;5075801;28;20102;-95
2022/10/28 09:59:23;;;;;;;32.88;17.25;;;;;;;17.82;89.69;99839.34;5065743;28;20037;-94
2022/10/28 10:01:50;;;;;;;35.22;18.48;;;;;;;17.74;88.71;99827.97;5081792;28;20190;-96
2022/10/28 10:04:20;;;;;;;34.58;18.65;;;;;;;17.90;89.47;99828.28;5070044;28;20049;-96
2022/10/28 10:06:49;;;;;;;38.70;19.00;;;;;;;18.09;87.56;99837.38;5065378;28;20043;-95
2022/10/28 10:09:22;;;;;;;38.78;19.35;;;;;;;18.17;87.84;99820.88;5066566;28;20060;-96
2022/10/28 10:11:51;;;;;;;34.63;19.35;;;;;;;18.17;86.50;99827.19;5065063;28;20048;-95
2022/10/28 10:14:23;;;;;;;44.30;20.92;;;;;;;18.32;86.88;99827.47;5064947;28;20053;-95
2022/10/28 10:16:54;;;;;;;31.02;17.55;;;;;;;18.35;87.19;99821.97;5064385;28;20059;-94
2022/10/28 10:19:20;;;;;;;37.42;17.55;;;;;;;18.48;87.08;99820.50;5063486;28;20076;-96
2022/10/28 10:21:48;;;;;;;32.58;16.35;;;;;;;18.55;86.15;99813.03;5065183;28;20037;-95
2022/10/28 10:24:30;;;;;;;35.10;18.02;;;;;;;18.66;85.63;99817.00;5065248;28;20056;-95
2022/10/28 10:27:00;;;;;;;33.28;17.77;;;;;;;18.65;85.34;99809.88;5066827;28;20140;-95
2022/10/28 10:29:29;;;;;;;32.58;17.17;;;;;;;18.68;85.33;99811.53;5065120;28;20135;-95
2022/10/28 10:32:07;;;;;;;34.13;17.17;;;;;;;18.83;85.91;99828.91;5065646;28;20135;-95
2022/10/28 10:34:33;;;;;;;34.60;17.45;;;;;;;18.70;85.30;99796.19;5065915;28;20049;-96
2022/10/28 10:37:00;;;;;;;37.05;17.15;;;;;;;18.77;86.02;99800.34;5065008;28;20036;-95
2022/10/28 10:39:32;;;;;;;31.85;15.77;;;;;;;18.82;85.76;99809.16;5071681;28;20091;-94
2022/10/28 10:41:58;;;;;;;40.13;18.17;;;;;;;18.80;86.06;99793.97;5067304;28;20116;-95
2022/10/28 10:44:31;;;;;;;33.95;17.00;;;;;;;18.87;85.37;99782.00;5065010;28;20167;-96
2022/10/28 10:47:19;;;;;;;31.33;17.20;;;;;;;18.93;84.98;99789.78;5065137;28;20055;-94
2022/10/28 10:49:45;;;;;;;32.10;17.02;;;;;;;18.91;85.16;99785.41;5065598;28;20097;-95
2022/10/28 10:52:18;;;;;;;35.80;17.52;;;;;;;18.97;85.21;99788.72;5066687;28;20512;-94
2022/10/28 10:55:00;;;;;;;37.22;17.48;;;;;;;19.05;85.32;99786.53;5087190;28;20052;-95
2022/10/28 10:57:27;;;;;;;37.45;17.95;;;;;;;19.16;85.48;99794.16;5086098;28;20060;-93
2022/10/28 10:59:55;;;;;;;30.65;16.23;;;;;;;19.25;84.59;99792.84;5078919;28;20041;-93
2022/10/28 11:02:27;;;;;;;32.47;17.33;;;;;;;19.16;84.46;99774.41;5073577;28;20068;-95
2022/10/28 11:04:56;;;;;;;32.78;17.38;;;;;;;19.20;84.47;99767.91;5082425;28;20049;-94
2022/10/28 11:07:22;;;;;;;33.42;16.67;;;;;;;19.22;84.08;99764.19;5083029;28;20045;-96
2022/10/28 11:09:50;;;;;;;34.72;16.23;;;;;;;19.27;84.44;99766.69;5085441;28;20044;-95
2022/10/28 11:12:25;;;;;;;38.95;17.80;;;;;;;19.35;83.57;99775.28;5085706;28;20055;-96
2022/10/28 11:14:56;;;;;;;32.22;16.77;;;;;;;19.36;83.46;99759.97;5084697;28;20057;-96
2022/10/28 11:17:27;;;;;;;36.40;16.20;;;;;;;19.34;83.60;99746.56;5082557;28;20041;-94